Time,TemperatureF,DewpointF,PressureIn,WindDirection,WindDirectionDegrees,WindSpeedMPH,WindSpeedGustMPH,Humidity,HourlyPrecipIn,Conditions,Clouds,dailyrainin,SoftwareType,DateUTC
2013-04-20 00:02:00,25.0,21.0,-100.00,WNW,295,11.0,12.0,83,0.00,,,0.00,,2013-04-20 05:02:00,
2013-04-20 00:12:00,25.0,21.0,-100.00,WNW,295,11.0,12.0,83,0.00,,,0.00,,2013-04-20 05:12:00,
2013-04-20 00:22:00,25.0,21.0,-100.00,WNW,295,9.0,12.0,83,0.00,,,0.00,,2013-04-20 05:22:00,
2013-04-20 00:32:00,24.0,19.0,-100.00,WNW,295,9.0,11.0,84,0.00,,,0.00,,2013-04-20 05:32:00,
2013-04-20 00:43:00,24.0,19.0,-100.00,WNW,295,10.0,11.0,84,0.00,,,0.00,,2013-04-20 05:43:00,
2013-04-20 00:51:00,24.0,19.0,-100.00,WNW,290,9.0,11.0,84,0.00,,,0.00,,2013-04-20 05:51:00,
2013-04-20 01:02:00,25.0,21.0,-100.00,WNW,285,10.0,12.0,83,0.00,,,0.00,,2013-04-20 06:02:00,
2013-04-20 01:12:00,25.0,21.0,-100.00,WNW,285,10.0,12.0,83,0.00,,,0.00,,2013-04-20 06:12:00,
2013-04-20 01:21:00,25.0,19.0,-100.00,WNW,285,10.0,12.0,83,0.00,,,0.00,,2013-04-20 06:21:00,
2013-04-20 01:32:00,25.0,19.0,-100.00,WNW,285,10.0,12.0,82,0.00,,,0.00,,2013-04-20 06:32:00,
2013-04-20 01:42:00,24.0,19.0,-100.00,WNW,285,9.0,11.0,82,0.00,,,0.00,,2013-04-20 06:42:00,
2013-04-20 01:52:00,24.0,19.0,-100.00,WNW,290,9.0,11.0,82,0.00,,,0.00,,2013-04-20 06:52:00,
2013-04-20 02:01:00,24.0,19.0,-100.00,WNW,290,9.0,10.0,83,0.00,,,0.00,,2013-04-20 07:01:00,
2013-04-20 02:11:00,23.0,19.0,-100.00,WNW,290,8.0,10.0,83,0.00,,,0.00,,2013-04-20 07:11:00,
2013-04-20 02:21:00,22.0,18.0,-100.00,WNW,295,7.0,9.0,84,0.00,,,0.00,,2013-04-20 07:21:00,
2013-04-20 02:32:00,20.0,18.0,-100.00,NW,305,7.0,9.0,86,0.00,,,0.00,,2013-04-20 07:32:00,
2013-04-20 02:42:00,20.0,18.0,-100.00,WNW,300,7.0,7.0,88,0.00,,,0.00,,2013-04-20 07:42:00,
2013-04-20 02:52:00,22.0,19.0,-100.00,WNW,290,7.0,7.0,88,0.00,,,0.00,,2013-04-20 07:52:00,
2013-04-20 03:01:00,22.0,19.0,-100.00,WNW,290,7.0,8.0,87,0.00,,,0.00,,2013-04-20 08:01:00,
2013-04-20 03:11:00,22.0,19.0,-100.00,WNW,290,7.0,9.0,87,0.00,,,0.00,,2013-04-20 08:11:00,
2013-04-20 03:21:00,22.0,19.0,-100.00,WNW,290,7.0,9.0,87,0.00,,,0.00,,2013-04-20 08:21:00,
2013-04-20 03:32:00,22.0,19.0,-100.00,WNW,285,7.0,9.0,87,0.00,,,0.00,,2013-04-20 08:32:00,
2013-04-20 03:42:00,22.0,18.0,-100.00,WNW,295,7.0,9.0,86,0.00,,,0.00,,2013-04-20 08:42:00,
2013-04-20 03:52:00,20.0,16.0,-100.00,WNW,290,7.0,8.0,86,0.00,,,0.00,,2013-04-20 08:52:00,
2013-04-20 04:01:00,22.0,19.0,-100.00,WNW,285,7.0,9.0,86,0.00,,,0.00,,2013-04-20 09:01:00,
2013-04-20 04:12:00,22.0,19.0,-100.00,West,265,6.0,9.0,87,0.00,,,0.00,,2013-04-20 09:12:00,
2013-04-20 04:21:00,22.0,19.0,-100.00,WSW,255,7.0,7.0,88,0.00,,,0.00,,2013-04-20 09:21:00,
2013-04-20 04:33:00,22.0,19.0,-100.00,WSW,255,7.0,8.0,88,0.00,,,0.00,,2013-04-20 09:33:00,
2013-04-20 04:43:00,22.0,19.0,-100.00,West,280,7.0,9.0,88,0.00,,,0.00,,2013-04-20 09:43:00,
2013-04-20 04:52:00,22.0,19.0,-100.00,WNW,285,7.0,9.0,87,0.00,,,0.00,,2013-04-20 09:52:00,
2013-04-20 05:02:00,22.0,19.0,-100.00,WNW,290,7.0,8.0,87,0.00,,,0.00,,2013-04-20 10:02:00,
2013-04-20 05:13:00,20.0,18.0,-100.00,West,270,4.0,8.0,87,0.00,,,0.00,,2013-04-20 10:13:00,
2013-04-20 05:23:00,21.0,18.0,-100.00,WNW,285,6.0,7.0,88,0.00,,,0.00,,2013-04-20 10:23:00,
2013-04-20 05:33:00,20.0,18.0,-100.00,WNW,285,7.0,9.0,87,0.00,,,0.00,,2013-04-20 10:33:00,
2013-04-20 05:42:00,21.0,18.0,-100.00,West,275,6.0,9.0,87,0.00,,,0.00,,2013-04-20 10:42:00,
2013-04-20 05:52:00,21.0,18.0,-100.00,West,270,6.0,7.0,88,0.00,,,0.00,,2013-04-20 10:52:00,
2013-04-20 06:02:00,22.0,19.0,-100.00,West,270,6.0,7.0,88,0.00,,,0.00,,2013-04-20 11:02:00,
2013-04-20 06:12:00,21.0,18.0,-100.00,WNW,285,5.0,6.0,88,0.00,,,0.00,,2013-04-20 11:12:00,
2013-04-20 06:23:00,20.0,18.0,-100.00,WNW,290,6.0,7.0,88,0.00,,,0.00,,2013-04-20 11:23:00,
2013-04-20 06:32:00,19.0,16.0,-100.00,WNW,295,6.0,7.0,86,0.00,,,0.00,,2013-04-20 11:32:00,
2013-04-20 06:42:00,17.0,14.0,-100.00,WNW,285,6.0,7.0,87,0.00,,,0.00,,2013-04-20 11:42:00,
2013-04-20 06:52:00,17.0,14.0,-100.00,WNW,285,6.0,7.0,88,0.00,,,0.00,,2013-04-20 11:52:00,
2013-04-20 07:02:00,19.0,16.0,-100.00,West,265,2.0,7.0,89,0.00,,,0.00,,2013-04-20 12:02:00,
2013-04-20 07:11:00,18.0,16.0,-100.00,West,265,3.0,4.0,89,0.00,,,0.00,,2013-04-20 12:11:00,
2013-04-20 07:22:00,19.0,16.0,-100.00,West,275,3.0,4.0,89,0.00,,,0.00,,2013-04-20 12:22:00,
2013-04-20 07:32:00,19.0,16.0,-100.00,West,275,2.0,4.0,89,0.00,,,0.00,,2013-04-20 12:32:00,
2013-04-20 07:42:00,19.0,18.0,-100.00,NW,305,2.0,4.0,89,0.00,,,0.00,,2013-04-20 12:42:00,
2013-04-20 07:52:00,21.0,19.0,-100.00,WNW,285,3.0,3.0,89,0.00,,,0.00,,2013-04-20 12:52:00,
2013-04-20 08:02:00,22.0,19.0,-100.00,WNW,290,3.0,4.0,87,0.00,,,0.00,,2013-04-20 13:02:00,
2013-04-20 08:11:00,22.0,19.0,-100.00,WNW,290,4.0,4.0,86,0.00,,,0.00,,2013-04-20 13:11:00,
2013-04-20 08:21:00,22.0,19.0,-100.00,WNW,290,4.0,5.0,86,0.00,,,0.00,,2013-04-20 13:21:00,
2013-04-20 08:32:00,24.0,19.0,-100.00,WNW,285,4.0,5.0,84,0.00,,,0.00,,2013-04-20 13:32:00,
2013-04-20 08:42:00,24.0,19.0,-100.00,WNW,290,4.0,4.0,83,0.00,,,0.00,,2013-04-20 13:42:00,
2013-04-20 08:52:00,25.0,21.0,-100.00,NW,305,3.0,4.0,82,0.00,,,0.00,,2013-04-20 13:52:00,
2013-04-20 09:02:00,26.0,21.0,-100.00,NW,310,2.0,4.0,80,0.00,,,0.00,,2013-04-20 14:02:00,
2013-04-20 09:11:00,26.0,21.0,-100.00,NW,310,2.0,4.0,80,0.00,,,0.00,,2013-04-20 14:11:00,
2013-04-20 09:21:00,26.0,21.0,-100.00,NW,310,2.0,4.0,80,0.00,,,0.00,,2013-04-20 14:21:00,
2013-04-20 09:32:00,26.0,21.0,-100.00,NW,310,2.0,4.0,80,0.00,,,0.00,,2013-04-20 14:32:00,
2013-04-20 09:42:00,31.0,23.0,-100.00,NE,40,3.0,4.0,71,0.00,,,0.00,,2013-04-20 14:42:00,
2013-04-20 09:52:00,33.0,23.0,-100.00,NE,55,4.0,4.0,65,0.00,,,0.00,,2013-04-20 14:52:00,
2013-04-20 10:01:00,33.0,21.0,-100.00,NE,55,3.0,6.0,61,0.00,,,0.00,,2013-04-20 15:01:00,
2013-04-20 10:11:00,33.0,19.0,-100.00,ENE,70,4.0,5.0,59,0.00,,,0.00,,2013-04-20 15:11:00,
2013-04-20 10:21:00,33.0,19.0,-100.00,ENE,65,4.0,6.0,56,0.00,,,0.00,,2013-04-20 15:21:00,
2013-04-20 10:33:00,34.0,18.0,-100.00,NE,45,3.0,5.0,53,0.00,,,0.00,,2013-04-20 15:33:00,
2013-04-20 10:43:00,36.0,19.0,-100.00,ENE,60,1.0,3.0,49,0.00,,,0.00,,2013-04-20 15:43:00,
2013-04-20 10:53:00,37.0,18.0,-100.00,ENE,75,2.0,4.0,46,0.00,,,0.00,,2013-04-20 15:53:00,
2013-04-20 11:03:00,34.0,16.0,-100.00,SE,130,2.0,4.0,46,0.00,,,0.00,,2013-04-20 16:03:00,
2013-04-20 11:12:00,34.0,16.0,-100.00,SE,130,2.0,4.0,46,0.00,,,0.00,,2013-04-20 16:12:00,
2013-04-20 11:23:00,35.0,18.0,-100.00,ENE,60,1.0,3.0,49,0.00,,,0.00,,2013-04-20 16:23:00,
2013-04-20 11:32:00,35.0,18.0,-100.00,ENE,60,1.0,3.0,49,0.00,,,0.00,,2013-04-20 16:32:00,
2013-04-20 11:42:00,35.0,18.0,-100.00,ENE,60,1.0,3.0,49,0.00,,,0.00,,2013-04-20 16:42:00,
2013-04-20 11:52:00,35.0,18.0,-100.00,ENE,60,1.0,3.0,49,0.00,,,0.00,,2013-04-20 16:52:00,
2013-04-20 12:23:00,34.0,16.0,-100.00,South,175,4.0,6.0,48,0.00,,,0.00,,2013-04-20 17:23:00,
2013-04-20 12:33:00,34.0,16.0,-100.00,South,175,4.0,6.0,48,0.00,,,0.00,,2013-04-20 17:33:00,
2013-04-20 12:42:00,34.0,16.0,-100.00,South,175,4.0,6.0,48,0.00,,,0.00,,2013-04-20 17:42:00,
2013-04-20 12:52:00,34.0,16.0,-100.00,South,175,4.0,6.0,48,0.00,,,0.00,,2013-04-20 17:52:00,
2013-04-20 13:32:00,33.0,16.0,-100.00,SSE,165,7.0,10.0,49,0.00,,,0.00,,2013-04-20 18:32:00,
2013-04-20 13:42:00,33.0,16.0,-100.00,SSE,165,7.0,10.0,49,0.00,,,0.00,,2013-04-20 18:42:00,
2013-04-20 13:52:00,34.0,18.0,-100.00,SSE,160,7.0,11.0,50,0.00,,,0.00,,2013-04-20 18:52:00,
2013-04-20 14:02:00,34.0,18.0,-100.00,SSE,160,7.0,11.0,50,0.00,,,0.00,,2013-04-20 19:02:00,
2013-04-20 14:11:00,34.0,18.0,-100.00,SSE,160,7.0,11.0,50,0.00,,,0.00,,2013-04-20 19:11:00,
2013-04-20 14:21:00,34.0,18.0,-100.00,SSE,160,7.0,11.0,50,0.00,,,0.00,,2013-04-20 19:21:00,
2013-04-20 14:32:00,34.0,18.0,-100.00,South,170,7.0,11.0,49,0.00,,,0.00,,2013-04-20 19:32:00,
2013-04-20 14:42:00,33.0,18.0,-100.00,SE,130,8.0,12.0,50,0.00,,,0.00,,2013-04-20 19:42:00,
2013-04-20 14:52:00,33.0,18.0,-100.00,SE,130,8.0,12.0,50,0.00,,,0.00,,2013-04-20 19:52:00,
2013-04-20 15:02:00,33.0,18.0,-100.00,SE,130,8.0,12.0,50,0.00,,,0.00,,2013-04-20 20:02:00,
2013-04-20 15:12:00,33.0,18.0,-100.00,SE,130,8.0,12.0,50,0.00,,,0.00,,2013-04-20 20:12:00,
2013-04-20 15:21:00,34.0,18.0,-100.00,SSE,150,10.0,13.0,50,0.00,,,0.00,,2013-04-20 20:21:00,
2013-04-20 15:32:00,35.0,19.0,-100.00,SSE,155,9.0,13.0,51,0.00,,,0.00,,2013-04-20 20:32:00,
2013-04-20 15:42:00,34.0,18.0,-100.00,SSE,150,9.0,12.0,50,0.00,,,0.00,,2013-04-20 20:42:00,
2013-04-20 15:52:00,35.0,19.0,-100.00,SSE,150,9.0,13.0,51,0.00,,,0.00,,2013-04-20 20:52:00,
2013-04-20 16:01:00,35.0,18.0,-100.00,South,175,9.0,12.0,49,0.00,,,0.00,,2013-04-20 21:01:00,
2013-04-20 16:12:00,34.0,18.0,-100.00,SE,140,9.0,12.0,49,0.00,,,0.00,,2013-04-20 21:12:00,
2013-04-20 16:21:00,35.0,18.0,-100.00,South,170,11.0,13.0,49,0.00,,,0.00,,2013-04-20 21:21:00,
2013-04-20 16:33:00,35.0,18.0,-100.00,South,170,11.0,13.0,49,0.00,,,0.00,,2013-04-20 21:33:00,
2013-04-20 16:43:00,35.0,18.0,-100.00,South,170,11.0,13.0,49,0.00,,,0.00,,2013-04-20 21:43:00,
2013-04-20 16:52:00,36.0,18.0,-100.00,South,175,11.0,15.0,48,0.00,,,0.00,,2013-04-20 21:52:00,
2013-04-20 17:02:00,35.0,18.0,-100.00,South,170,12.0,16.0,48,0.00,,,0.00,,2013-04-20 22:02:00,
2013-04-20 17:12:00,35.0,18.0,-100.00,SSE,150,11.0,14.0,48,0.00,,,0.00,,2013-04-20 22:12:00,
2013-04-20 17:22:00,35.0,18.0,-100.00,SE,145,11.0,14.0,49,0.00,,,0.00,,2013-04-20 22:22:00,
2013-04-20 17:32:00,35.0,18.0,-100.00,SE,145,11.0,14.0,49,0.00,,,0.00,,2013-04-20 22:32:00,
2013-04-20 17:42:00,35.0,18.0,-100.00,SE,145,11.0,14.0,49,0.00,,,0.00,,2013-04-20 22:42:00,
2013-04-20 17:52:00,35.0,18.0,-100.00,SSE,165,12.0,14.0,49,0.00,,,0.00,,2013-04-20 22:52:00,
2013-04-20 18:02:00,35.0,18.0,-100.00,SSE,165,12.0,14.0,49,0.00,,,0.00,,2013-04-20 23:02:00,
2013-04-20 18:11:00,35.0,18.0,-100.00,SSE,150,10.0,14.0,49,0.00,,,0.00,,2013-04-20 23:11:00,
2013-04-20 18:22:00,35.0,18.0,-100.00,SSE,165,9.0,12.0,50,0.00,,,0.00,,2013-04-20 23:22:00,
2013-04-20 18:32:00,35.0,18.0,-100.00,SSE,165,9.0,12.0,50,0.00,,,0.00,,2013-04-20 23:32:00,
2013-04-20 18:42:00,35.0,18.0,-100.00,SSE,165,9.0,12.0,50,0.00,,,0.00,,2013-04-20 23:42:00,
2013-04-20 18:52:00,35.0,18.0,-100.00,SSE,165,9.0,12.0,50,0.00,,,0.00,,2013-04-20 23:52:00,
2013-04-20 19:01:00,35.0,19.0,-100.00,SSE,155,10.0,14.0,54,0.00,,,0.00,,2013-04-21 00:01:00,
2013-04-20 19:12:00,35.0,19.0,-100.00,SSE,155,10.0,14.0,54,0.00,,,0.00,,2013-04-21 00:12:00,
2013-04-20 19:22:00,35.0,19.0,-100.00,SSE,155,10.0,14.0,54,0.00,,,0.00,,2013-04-21 00:22:00,
2013-04-20 19:32:00,34.0,18.0,-100.00,SE,145,11.0,15.0,52,0.00,,,0.00,,2013-04-21 00:32:00,
2013-04-20 19:42:00,34.0,18.0,-100.00,SE,145,9.0,14.0,53,0.00,,,0.00,,2013-04-21 00:42:00,
2013-04-20 19:52:00,33.0,19.0,-100.00,SE,140,9.0,11.0,55,0.00,,,0.00,,2013-04-21 00:52:00,
2013-04-20 20:01:00,33.0,19.0,-100.00,SE,140,9.0,11.0,55,0.00,,,0.00,,2013-04-21 01:01:00,
2013-04-20 20:11:00,33.0,19.0,-100.00,SSE,150,9.0,11.0,58,0.00,,,0.00,,2013-04-21 01:11:00,
2013-04-20 20:21:00,33.0,19.0,-100.00,SSE,150,9.0,11.0,58,0.00,,,0.00,,2013-04-21 01:21:00,
2013-04-20 20:31:00,31.0,19.0,-100.00,SE,145,9.0,11.0,62,0.00,,,0.00,,2013-04-21 01:31:00,
2013-04-20 20:42:00,31.0,19.0,-100.00,SE,145,9.0,11.0,62,0.00,,,0.00,,2013-04-21 01:42:00,
2013-04-20 20:52:00,31.0,19.0,-100.00,SE,145,9.0,11.0,62,0.00,,,0.00,,2013-04-21 01:52:00,
2013-04-20 21:02:00,31.0,19.0,-100.00,SE,145,9.0,11.0,62,0.00,,,0.00,,2013-04-21 02:02:00,
2013-04-20 21:11:00,31.0,19.0,-100.00,SE,145,9.0,11.0,62,0.00,,,0.00,,2013-04-21 02:11:00,
2013-04-20 21:32:00,31.0,21.0,-100.00,SE,140,10.0,12.0,67,0.00,,,0.00,,2013-04-21 02:32:00,
2013-04-20 21:42:00,31.0,21.0,-100.00,SE,140,10.0,12.0,67,0.00,,,0.00,,2013-04-21 02:42:00,
2013-04-20 21:52:00,30.0,23.0,-100.00,SE,140,10.0,12.0,71,0.00,,,0.00,,2013-04-21 02:52:00,
2013-04-20 22:01:00,30.0,23.0,-100.00,SE,140,9.0,11.0,74,0.00,,,0.00,,2013-04-21 03:01:00,
2013-04-20 22:11:00,30.0,23.0,-100.00,SE,140,9.0,11.0,74,0.00,,,0.00,,2013-04-21 03:11:00,
2013-04-20 22:21:00,30.0,23.0,-100.00,SE,140,9.0,11.0,74,0.00,,,0.00,,2013-04-21 03:21:00,
2013-04-20 22:33:00,30.0,23.0,-100.00,SE,140,9.0,11.0,74,0.00,,,0.00,,2013-04-21 03:33:00,
2013-04-20 22:42:00,30.0,23.0,-100.00,SE,140,9.0,11.0,74,0.00,,,0.00,,2013-04-21 03:42:00,
2013-04-20 23:12:00,31.0,25.0,-100.00,SE,135,12.0,15.0,78,0.00,,,0.00,,2013-04-21 04:12:00,
2013-04-20 23:23:00,31.0,25.0,-100.00,SE,135,12.0,15.0,78,0.00,,,0.00,,2013-04-21 04:23:00,
2013-04-20 23:33:00,31.0,25.0,-100.00,SE,135,12.0,15.0,78,0.00,,,0.00,,2013-04-21 04:33:00,
2013-04-20 23:42:00,31.0,25.0,-100.00,SE,135,12.0,15.0,78,0.00,,,0.00,,2013-04-21 04:42:00,
2013-04-20 23:53:00,31.0,25.0,-100.00,SE,140,15.0,19.0,79,0.00,,,0.00,,2013-04-21 04:53:00,